sensor_id;sensor_type;location;lat;lon;timestamp;P1;durP1;ratioP1;P2;durP2;ratioP2
38037;SDS011;23843;51.320;12.340;2022-10-31T05:31:06;0.70;;;0.60;;
38037;SDS011;23843;51.320;12.340;2022-10-31T05:33:31;0.83;;;0.70;;
38037;SDS011;23843;51.320;12.340;2022-10-31T05:35:57;0.60;;;0.60;;
38037;SDS011;23843;51.320;12.340;2022-10-31T05:38:22;1.00;;;0.60;;
38037;SDS011;23843;51.320;12.340;2022-10-31T05:40:47;0.40;;;0.40;;
38037;SDS011;23843;51.320;12.340;2022-10-31T05:43:13;0.77;;;0.47;;
38037;SDS011;23843;51.320;12.340;2022-10-31T05:45:38;0.63;;;0.63;;
38037;SDS011;23843;51.320;12.340;2022-10-31T05:48:05;0.70;;;0.50;;
38037;SDS011;23843;51.320;12.340;2022-10-31T05:50:31;0.70;;;0.70;;
38037;SDS011;23843;51.320;12.340;2022-10-31T05:52:57;0.57;;;0.53;;
38037;SDS011;23843;51.320;12.340;2022-10-31T05:55:24;0.63;;;0.63;;
38037;SDS011;23843;51.320;12.340;2022-10-31T05:57:51;0.80;;;0.70;;
38037;SDS011;23843;51.320;12.340;2022-10-31T06:00:17;1.40;;;0.80;;
38037;SDS011;23843;51.320;12.340;2022-10-31T06:02:42;0.70;;;0.60;;
38037;SDS011;23843;51.320;12.340;2022-10-31T06:05:09;0.80;;;0.70;;
38037;SDS011;23843;51.320;12.340;2022-10-31T06:07:34;0.80;;;0.80;;
38037;SDS011;23843;51.320;12.340;2022-10-31T06:10:01;1.13;;;0.90;;
38037;SDS011;23843;51.320;12.340;2022-10-31T06:12:28;0.60;;;0.57;;
38037;SDS011;23843;51.320;12.340;2022-10-31T06:14:53;0.60;;;0.60;;
38037;SDS011;23843;51.320;12.340;2022-10-31T06:17:18;0.77;;;0.70;;
38037;SDS011;23843;51.320;12.340;2022-10-31T06:19:44;0.80;;;0.60;;
38037;SDS011;23843;51.320;12.340;2022-10-31T06:22:11;0.70;;;0.60;;
38037;SDS011;23843;51.320;12.340;2022-10-31T06:24:36;1.30;;;0.83;;
38037;SDS011;23843;51.320;12.340;2022-10-31T06:27:02;0.93;;;0.77;;
38037;SDS011;23843;51.320;12.340;2022-10-31T06:29:29;1.40;;;0.70;;
38037;SDS011;23843;51.320;12.340;2022-10-31T06:31:55;0.70;;;0.67;;
38037;SDS011;23843;51.320;12.340;2022-10-31T06:34:20;0.70;;;0.67;;
38037;SDS011;23843;51.320;12.340;2022-10-31T06:36:45;0.50;;;0.50;;
38037;SDS011;23843;51.320;12.340;2022-10-31T06:39:12;1.40;;;1.30;;
38037;SDS011;23843;51.320;12.340;2022-10-31T06:41:38;0.50;;;0.50;;
38037;SDS011;23843;51.320;12.340;2022-10-31T06:44:03;0.60;;;0.60;;
38037;SDS011;23843;51.320;12.340;2022-10-31T06:46:29;0.60;;;0.60;;
38037;SDS011;23843;51.320;12.340;2022-10-31T06:48:54;0.50;;;0.50;;
38037;SDS011;23843;51.320;12.340;2022-10-31T06:51:20;0.67;;;0.50;;
38037;SDS011;23843;51.320;12.340;2022-10-31T06:53:45;0.63;;;0.60;;
38037;SDS011;23843;51.320;12.340;2022-10-31T06:56:12;0.53;;;0.53;;
38037;SDS011;23843;51.320;12.340;2022-10-31T06:58:37;0.50;;;0.50;;
38037;SDS011;23843;51.320;12.340;2022-10-31T07:01:02;0.50;;;0.50;;
38037;SDS011;23843;51.320;12.340;2022-10-31T07:03:28;1.93;;;1.00;;
38037;SDS011;23843;51.320;12.340;2022-10-31T07:05:54;2.37;;;1.23;;
38037;SDS011;23843;51.320;12.340;2022-10-31T07:08:20;3.20;;;1.87;;
38037;SDS011;23843;51.320;12.340;2022-10-31T07:10:50;2.70;;;2.20;;
38037;SDS011;23843;51.320;12.340;2022-10-31T07:13:18;3.00;;;2.20;;
38037;SDS011;23843;51.320;12.340;2022-10-31T07:15:44;2.37;;;1.70;;
38037;SDS011;23843;51.320;12.340;2022-10-31T07:18:10;1.30;;;1.20;;
38037;SDS011;23843;51.320;12.340;2022-10-31T07:20:36;1.80;;;1.50;;
38037;SDS011;23843;51.320;12.340;2022-10-31T07:23:02;1.73;;;1.60;;
38037;SDS011;23843;51.320;12.340;2022-10-31T07:25:28;1.87;;;1.40;;
38037;SDS011;23843;51.320;12.340;2022-10-31T07:27:54;1.43;;;1.30;;
38037;SDS011;23843;51.320;12.340;2022-10-31T07:30:21;2.20;;;1.80;;
38037;SDS011;23843;51.320;12.340;2022-10-31T07:32:47;1.90;;;1.67;;
38037;SDS011;23843;51.320;12.340;2022-10-31T07:35:15;2.10;;;1.60;;
38037;SDS011;23843;51.320;12.340;2022-10-31T07:37:43;2.13;;;1.30;;
38037;SDS011;23843;51.320;12.340;2022-10-31T07:40:09;2.47;;;1.43;;
38037;SDS011;23843;51.320;12.340;2022-10-31T07:42:35;4.07;;;2.53;;
38037;SDS011;23843;51.320;12.340;2022-10-31T07:45:00;3.50;;;2.50;;
38037;SDS011;23843;51.320;12.340;2022-10-31T07:47:27;2.70;;;2.30;;
38037;SDS011;23843;51.320;12.340;2022-10-31T07:49:52;2.77;;;2.13;;
38037;SDS011;23843;51.320;12.340;2022-10-31T07:52:18;3.70;;;2.50;;
38037;SDS011;23843;51.320;12.340;2022-10-31T07:54:43;3.23;;;2.40;;
38037;SDS011;23843;51.320;12.340;2022-10-31T07:57:08;3.70;;;2.10;;
38037;SDS011;23843;51.320;12.340;2022-10-31T07:59:34;3.57;;;3.27;;
38037;SDS011;23843;51.320;12.340;2022-10-31T08:01:59;4.30;;;2.17;;
38037;SDS011;23843;51.320;12.340;2022-10-31T08:04:26;2.40;;;1.87;;
38037;SDS011;23843;51.320;12.340;2022-10-31T08:06:51;3.07;;;2.27;;
38037;SDS011;23843;51.320;12.340;2022-10-31T08:09:17;2.80;;;2.13;;
38037;SDS011;23843;51.320;12.340;2022-10-31T08:11:42;2.83;;;2.00;;
38037;SDS011;23843;51.320;12.340;2022-10-31T08:14:07;1.67;;;1.57;;
38037;SDS011;23843;51.320;12.340;2022-10-31T08:16:33;2.00;;;1.80;;
38037;SDS011;23843;51.320;12.340;2022-10-31T08:18:58;2.20;;;1.53;;
38037;SDS011;23843;51.320;12.340;2022-10-31T08:21:25;1.93;;;1.70;;
38037;SDS011;23843;51.320;12.340;2022-10-31T08:23:50;2.57;;;1.70;;
38037;SDS011;23843;51.320;12.340;2022-10-31T08:26:15;2.63;;;2.30;;
38037;SDS011;23843;51.320;12.340;2022-10-31T08:28:41;5.43;;;3.07;;
38037;SDS011;23843;51.320;12.340;2022-10-31T08:31:06;3.93;;;3.10;;
38037;SDS011;23843;51.320;12.340;2022-10-31T08:33:37;3.33;;;2.70;;
38037;SDS011;23843;51.320;12.340;2022-10-31T08:36:03;2.93;;;2.33;;
38037;SDS011;23843;51.320;12.340;2022-10-31T08:38:30;1.40;;;1.30;;
38037;SDS011;23843;51.320;12.340;2022-10-31T08:40:55;2.93;;;1.50;;
38037;SDS011;23843;51.320;12.340;2022-10-31T08:43:21;1.60;;;1.40;;
38037;SDS011;23843;51.320;12.340;2022-10-31T08:45:47;1.70;;;1.43;;
38037;SDS011;23843;51.320;12.340;2022-10-31T08:48:14;1.40;;;1.30;;
38037;SDS011;23843;51.320;12.340;2022-10-31T08:50:40;2.70;;;1.60;;
38037;SDS011;23843;51.320;12.340;2022-10-31T08:53:07;2.27;;;1.67;;
38037;SDS011;23843;51.320;12.340;2022-10-31T08:55:37;1.90;;;1.20;;
38037;SDS011;23843;51.320;12.340;2022-10-31T08:58:04;1.67;;;1.27;;
38037;SDS011;23843;51.320;12.340;2022-10-31T09:00:31;1.50;;;1.33;;
38037;SDS011;23843;51.320;12.340;2022-10-31T09:02:56;3.27;;;2.10;;
38037;SDS011;23843;51.320;12.340;2022-10-31T09:05:22;3.70;;;2.83;;
38037;SDS011;23843;51.320;12.340;2022-10-31T09:07:47;2.60;;;2.10;;
38037;SDS011;23843;51.320;12.340;2022-10-31T09:10:13;2.63;;;2.00;;
38037;SDS011;23843;51.320;12.340;2022-10-31T09:12:39;2.07;;;1.60;;
38037;SDS011;23843;51.320;12.340;2022-10-31T09:15:05;2.20;;;1.67;;
38037;SDS011;23843;51.320;12.340;2022-10-31T09:17:31;3.03;;;2.40;;
38037;SDS011;23843;51.320;12.340;2022-10-31T09:19:56;3.00;;;2.07;;
38037;SDS011;23843;51.320;12.340;2022-10-31T09:22:22;3.50;;;2.70;;
38037;SDS011;23843;51.320;12.340;2022-10-31T09:24:47;3.13;;;2.57;;
38037;SDS011;23843;51.320;12.340;2022-10-31T09:27:13;3.30;;;2.73;;
38037;SDS011;23843;51.320;12.340;2022-10-31T09:29:39;4.97;;;3.37;;
38037;SDS011;23843;51.320;12.340;2022-10-31T09:32:05;6.53;;;4.38;;
38037;SDS011;23843;51.320;12.340;2022-10-31T09:34:30;8.38;;;4.90;;
38037;SDS011;23843;51.320;12.340;2022-10-31T09:36:56;4.57;;;3.43;;
38037;SDS011;23843;51.320;12.340;2022-10-31T09:39:21;8.52;;;6.03;;
38037;SDS011;23843;51.320;12.340;2022-10-31T09:42:00;6.18;;;4.32;;
38037;SDS011;23843;51.320;12.340;2022-10-31T09:44:33;4.97;;;3.53;;
38037;SDS011;23843;51.320;12.340;2022-10-31T09:47:14;2.72;;;2.20;;
38037;SDS011;23843;51.320;12.340;2022-10-31T09:49:58;3.03;;;2.50;;
38037;SDS011;23843;51.320;12.340;2022-10-31T09:52:32;4.07;;;3.03;;
38037;SDS011;23843;51.320;12.340;2022-10-31T09:54:59;4.00;;;3.07;;
38037;SDS011;23843;51.320;12.340;2022-10-31T09:57:30;4.20;;;3.27;;
38037;SDS011;23843;51.320;12.340;2022-10-31T09:59:59;3.60;;;2.85;;
38037;SDS011;23843;51.320;12.340;2022-10-31T10:02:29;3.42;;;2.80;;
38037;SDS011;23843;51.320;12.340;2022-10-31T10:04:58;3.63;;;2.50;;
38037;SDS011;23843;51.320;12.340;2022-10-31T10:07:27;4.67;;;3.00;;
38037;SDS011;23843;51.320;12.340;2022-10-31T10:10:00;5.60;;;4.07;;
38037;SDS011;23843;51.320;12.340;2022-10-31T10:12:39;4.17;;;3.37;;
38037;SDS011;23843;51.320;12.340;2022-10-31T10:15:19;4.27;;;3.30;;
38037;SDS011;23843;51.320;12.340;2022-10-31T10:17:58;2.60;;;2.30;;
38037;SDS011;23843;51.320;12.340;2022-10-31T10:20:35;4.47;;;3.70;;
38037;SDS011;23843;51.320;12.340;2022-10-31T10:23:18;3.67;;;3.10;;
38037;SDS011;23843;51.320;12.340;2022-10-31T10:25:57;3.60;;;2.40;;
38037;SDS011;23843;51.320;12.340;2022-10-31T10:28:27;5.68;;;4.03;;
38037;SDS011;23843;51.320;12.340;2022-10-31T10:30:59;3.65;;;2.85;;
38037;SDS011;23843;51.320;12.340;2022-10-31T10:33:30;4.23;;;3.20;;
38037;SDS011;23843;51.320;12.340;2022-10-31T10:36:00;3.77;;;2.70;;
38037;SDS011;23843;51.320;12.340;2022-10-31T10:38:30;3.30;;;2.53;;
38037;SDS011;23843;51.320;12.340;2022-10-31T10:41:02;4.40;;;3.13;;
38037;SDS011;23843;51.320;12.340;2022-10-31T10:43:31;2.90;;;2.40;;
38037;SDS011;23843;51.320;12.340;2022-10-31T10:46:04;6.90;;;4.70;;
38037;SDS011;23843;51.320;12.340;2022-10-31T10:48:42;3.43;;;3.10;;
38037;SDS011;23843;51.320;12.340;2022-10-31T10:51:12;4.90;;;3.73;;
38037;SDS011;23843;51.320;12.340;2022-10-31T10:53:46;5.53;;;3.83;;
38037;SDS011;23843;51.320;12.340;2022-10-31T10:56:27;3.67;;;2.70;;
38037;SDS011;23843;51.320;12.340;2022-10-31T10:59:01;2.93;;;2.53;;
38037;SDS011;23843;51.320;12.340;2022-10-31T11:01:29;2.40;;;2.20;;
38037;SDS011;23843;51.320;12.340;2022-10-31T11:03:55;3.57;;;3.07;;
38037;SDS011;23843;51.320;12.340;2022-10-31T11:06:21;3.50;;;2.70;;
38037;SDS011;23843;51.320;12.340;2022-10-31T11:08:48;2.45;;;2.00;;
38037;SDS011;23843;51.320;12.340;2022-10-31T11:11:24;2.03;;;1.80;;
38037;SDS011;23843;51.320;12.340;2022-10-31T11:13:52;2.80;;;2.30;;
38037;SDS011;23843;51.320;12.340;2022-10-31T11:16:27;4.65;;;2.63;;
38037;SDS011;23843;51.320;12.340;2022-10-31T11:19:05;9.23;;;6.32;;
38037;SDS011;23843;51.320;12.340;2022-10-31T11:21:33;5.70;;;4.07;;
38037;SDS011;23843;51.320;12.340;2022-10-31T11:24:02;5.45;;;3.58;;
38037;SDS011;23843;51.320;12.340;2022-10-31T11:26:28;4.20;;;2.80;;
38037;SDS011;23843;51.320;12.340;2022-10-31T11:28:57;4.22;;;3.10;;
38037;SDS011;23843;51.320;12.340;2022-10-31T11:31:24;3.67;;;2.83;;
38037;SDS011;23843;51.320;12.340;2022-10-31T11:33:53;5.05;;;3.72;;
38037;SDS011;23843;51.320;12.340;2022-10-31T11:36:23;3.85;;;2.97;;
38037;SDS011;23843;51.320;12.340;2022-10-31T11:38:51;3.83;;;3.25;;
38037;SDS011;23843;51.320;12.340;2022-10-31T11:41:18;7.80;;;5.40;;
38037;SDS011;23843;51.320;12.340;2022-10-31T11:43:49;7.07;;;4.05;;
38037;SDS011;23843;51.320;12.340;2022-10-31T11:46:18;3.58;;;2.78;;
38037;SDS011;23843;51.320;12.340;2022-10-31T11:48:46;2.45;;;2.10;;
38037;SDS011;23843;51.320;12.340;2022-10-31T11:51:20;4.57;;;3.08;;
38037;SDS011;23843;51.320;12.340;2022-10-31T11:53:49;3.00;;;2.70;;
38037;SDS011;23843;51.320;12.340;2022-10-31T11:56:16;4.35;;;2.65;;
38037;SDS011;23843;51.320;12.340;2022-10-31T11:58:42;5.50;;;3.88;;
38037;SDS011;23843;51.320;12.340;2022-10-31T12:01:08;4.55;;;2.88;;
38037;SDS011;23843;51.320;12.340;2022-10-31T12:03:51;3.05;;;2.63;;
38037;SDS011;23843;51.320;12.340;2022-10-31T12:06:28;2.47;;;1.92;;
38037;SDS011;23843;51.320;12.340;2022-10-31T12:08:56;4.15;;;2.78;;
38037;SDS011;23843;51.320;12.340;2022-10-31T12:11:37;6.70;;;4.72;;
38037;SDS011;23843;51.320;12.340;2022-10-31T12:14:14;4.68;;;3.35;;
38037;SDS011;23843;51.320;12.340;2022-10-31T12:16:49;3.38;;;2.80;;
38037;SDS011;23843;51.320;12.340;2022-10-31T12:19:23;5.05;;;3.50;;
38037;SDS011;23843;51.320;12.340;2022-10-31T12:22:02;10.50;;;7.60;;
38037;SDS011;23843;51.320;12.340;2022-10-31T12:24:35;7.57;;;5.28;;
38037;SDS011;23843;51.320;12.340;2022-10-31T12:27:12;6.22;;;4.85;;
38037;SDS011;23843;51.320;12.340;2022-10-31T12:29:51;11.90;;;7.25;;
38037;SDS011;23843;51.320;12.340;2022-10-31T12:32:29;12.03;;;8.30;;
38037;SDS011;23843;51.320;12.340;2022-10-31T12:35:09;7.13;;;5.13;;
38037;SDS011;23843;51.320;12.340;2022-10-31T12:37:57;7.50;;;4.63;;
38037;SDS011;23843;51.320;12.340;2022-10-31T12:40:40;4.47;;;3.80;;
38037;SDS011;23843;51.320;12.340;2022-10-31T12:43:19;5.07;;;3.70;;
38037;SDS011;23843;51.320;12.340;2022-10-31T12:45:57;3.13;;;2.50;;
38037;SDS011;23843;51.320;12.340;2022-10-31T12:51:33;13.30;;;8.35;;
38037;SDS011;23843;51.320;12.340;2022-10-31T12:54:14;14.03;;;9.47;;
38037;SDS011;23843;51.320;12.340;2022-10-31T12:56:52;13.10;;;7.60;;
38037;SDS011;23843;51.320;12.340;2022-10-31T12:59:27;10.10;;;7.28;;
38037;SDS011;23843;51.320;12.340;2022-10-31T13:01:59;15.85;;;10.68;;
38037;SDS011;23843;51.320;12.340;2022-10-31T13:04:35;11.43;;;9.05;;
38037;SDS011;23843;51.320;12.340;2022-10-31T13:07:07;9.38;;;5.72;;
38037;SDS011;23843;51.320;12.340;2022-10-31T13:09:38;4.97;;;3.97;;
38037;SDS011;23843;51.320;12.340;2022-10-31T13:12:09;9.38;;;5.95;;
38037;SDS011;23843;51.320;12.340;2022-10-31T13:14:38;7.93;;;5.70;;
38037;SDS011;23843;51.320;12.340;2022-10-31T13:17:06;8.88;;;5.30;;
38037;SDS011;23843;51.320;12.340;2022-10-31T13:19:39;4.25;;;3.40;;
38037;SDS011;23843;51.320;12.340;2022-10-31T13:22:08;5.13;;;3.80;;
38037;SDS011;23843;51.320;12.340;2022-10-31T13:24:40;4.75;;;3.80;;
38037;SDS011;23843;51.320;12.340;2022-10-31T13:27:11;6.78;;;4.75;;
38037;SDS011;23843;51.320;12.340;2022-10-31T13:29:44;8.75;;;6.00;;
38037;SDS011;23843;51.320;12.340;2022-10-31T13:32:21;5.22;;;4.43;;
38037;SDS011;23843;51.320;12.340;2022-10-31T13:34:47;6.82;;;5.32;;
38037;SDS011;23843;51.320;12.340;2022-10-31T13:37:20;11.00;;;7.40;;
38037;SDS011;23843;51.320;12.340;2022-10-31T13:40:03;7.50;;;5.15;;
38037;SDS011;23843;51.320;12.340;2022-10-31T13:42:40;9.77;;;7.07;;
38037;SDS011;23843;51.320;12.340;2022-10-31T13:45:15;14.00;;;8.65;;
38037;SDS011;23843;51.320;12.340;2022-10-31T13:47:41;8.70;;;6.32;;
38037;SDS011;23843;51.320;12.340;2022-10-31T13:50:18;7.03;;;5.05;;
38037;SDS011;23843;51.320;12.340;2022-10-31T13:52:45;4.07;;;3.50;;
38037;SDS011;23843;51.320;12.340;2022-10-31T13:58:23;8.75;;;5.97;;
38037;SDS011;23843;51.320;12.340;2022-10-31T14:03:42;8.70;;;5.37;;
38037;SDS011;23843;51.320;12.340;2022-10-31T14:06:10;10.65;;;6.28;;
38037;SDS011;23843;51.320;12.340;2022-10-31T14:08:37;8.47;;;5.20;;
38037;SDS011;23843;51.320;12.340;2022-10-31T14:11:09;6.33;;;4.63;;
38037;SDS011;23843;51.320;12.340;2022-10-31T14:13:47;5.37;;;4.03;;
38037;SDS011;23843;51.320;12.340;2022-10-31T14:16:17;7.15;;;5.28;;
38037;SDS011;23843;51.320;12.340;2022-10-31T14:18:48;9.30;;;5.47;;
38037;SDS011;23843;51.320;12.340;2022-10-31T14:21:16;6.70;;;4.70;;
38037;SDS011;23843;51.320;12.340;2022-10-31T14:23:53;4.67;;;3.10;;
38037;SDS011;23843;51.320;12.340;2022-10-31T14:26:30;5.72;;;3.63;;
38037;SDS011;23843;51.320;12.340;2022-10-31T14:28:58;3.25;;;2.58;;
38037;SDS011;23843;51.320;12.340;2022-10-31T14:31:29;2.53;;;2.33;;
38037;SDS011;23843;51.320;12.340;2022-10-31T14:33:57;3.72;;;2.25;;
38037;SDS011;23843;51.320;12.340;2022-10-31T14:36:24;2.92;;;2.45;;
38037;SDS011;23843;51.320;12.340;2022-10-31T14:38:56;2.33;;;1.70;;
38037;SDS011;23843;51.320;12.340;2022-10-31T14:41:39;4.90;;;3.40;;
38037;SDS011;23843;51.320;12.340;2022-10-31T14:44:21;3.63;;;2.60;;
38037;SDS011;23843;51.320;12.340;2022-10-31T14:47:20;3.07;;;2.47;;
38037;SDS011;23843;51.320;12.340;2022-10-31T14:53:29;3.37;;;2.10;;
38037;SDS011;23843;51.320;12.340;2022-10-31T14:56:09;2.37;;;1.97;;
38037;SDS011;23843;51.320;12.340;2022-10-31T15:01:34;3.53;;;2.07;;
38037;SDS011;23843;51.320;12.340;2022-10-31T15:04:03;3.33;;;2.20;;
38037;SDS011;23843;51.320;12.340;2022-10-31T15:06:36;2.93;;;2.50;;
38037;SDS011;23843;51.320;12.340;2022-10-31T15:09:20;6.00;;;3.87;;
38037;SDS011;23843;51.320;12.340;2022-10-31T15:11:46;2.63;;;2.07;;
38037;SDS011;23843;51.320;12.340;2022-10-31T15:14:20;4.30;;;2.90;;
38037;SDS011;23843;51.320;12.340;2022-10-31T15:16:47;2.90;;;2.60;;
38037;SDS011;23843;51.320;12.340;2022-10-31T15:19:14;1.80;;;1.50;;
38037;SDS011;23843;51.320;12.340;2022-10-31T15:21:45;1.83;;;1.57;;
38037;SDS011;23843;51.320;12.340;2022-10-31T15:24:11;1.90;;;1.67;;
38037;SDS011;23843;51.320;12.340;2022-10-31T15:26:39;1.97;;;1.70;;
38037;SDS011;23843;51.320;12.340;2022-10-31T15:29:12;2.17;;;1.80;;
38037;SDS011;23843;51.320;12.340;2022-10-31T15:31:48;1.77;;;1.30;;
38037;SDS011;23843;51.320;12.340;2022-10-31T15:34:16;1.20;;;1.10;;
38037;SDS011;23843;51.320;12.340;2022-10-31T15:36:47;1.10;;;1.00;;
38037;SDS011;23843;51.320;12.340;2022-10-31T15:39:13;1.00;;;0.90;;
38037;SDS011;23843;51.320;12.340;2022-10-31T15:41:45;1.13;;;1.00;;
38037;SDS011;23843;51.320;12.340;2022-10-31T15:44:34;1.20;;;1.10;;
38037;SDS011;23843;51.320;12.340;2022-10-31T15:50:47;1.20;;;1.10;;
38037;SDS011;23843;51.320;12.340;2022-10-31T15:53:23;1.40;;;1.20;;
38037;SDS011;23843;51.320;12.340;2022-10-31T15:56:10;1.77;;;1.40;;
38037;SDS011;23843;51.320;12.340;2022-10-31T15:58:48;1.73;;;1.30;;
38037;SDS011;23843;51.320;12.340;2022-10-31T16:01:22;1.73;;;1.30;;
38037;SDS011;23843;51.320;12.340;2022-10-31T16:03:59;1.93;;;1.53;;
38037;SDS011;23843;51.320;12.340;2022-10-31T16:09:22;3.97;;;2.10;;
38037;SDS011;23843;51.320;12.340;2022-10-31T16:11:49;3.63;;;2.80;;
38037;SDS011;23843;51.320;12.340;2022-10-31T16:14:22;5.07;;;3.70;;
38037;SDS011;23843;51.320;12.340;2022-10-31T16:17:11;3.47;;;2.90;;
38037;SDS011;23843;51.320;12.340;2022-10-31T16:19:42;7.30;;;5.00;;
38037;SDS011;23843;51.320;12.340;2022-10-31T16:25:33;4.93;;;3.70;;
38037;SDS011;23843;51.320;12.340;2022-10-31T16:30:55;3.73;;;2.97;;
38037;SDS011;23843;51.320;12.340;2022-10-31T16:32:51;2.50;;;2.23;;
38037;SDS011;23843;51.320;12.340;2022-10-31T16:34:36;2.30;;;1.83;;
38037;SDS011;23843;51.320;12.340;2022-10-31T16:37:04;5.07;;;3.80;;
38037;SDS011;23843;51.320;12.340;2022-10-31T16:40:00;4.60;;;3.67;;
38037;SDS011;23843;51.320;12.340;2022-10-31T16:45:58;11.37;;;7.33;;
38037;SDS011;23843;51.320;12.340;2022-10-31T16:48:44;9.17;;;6.10;;
38037;SDS011;23843;51.320;12.340;2022-10-31T16:51:26;12.30;;;8.80;;
38037;SDS011;23843;51.320;12.340;2022-10-31T16:54:06;12.17;;;9.00;;
38037;SDS011;23843;51.320;12.340;2022-10-31T16:56:53;19.43;;;12.83;;
38037;SDS011;23843;51.320;12.340;2022-10-31T16:59:40;13.37;;;9.57;;
38037;SDS011;23843;51.320;12.340;2022-10-31T17:02:06;14.50;;;9.90;;
38037;SDS011;23843;51.320;12.340;2022-10-31T17:04:39;17.83;;;12.47;;
38037;SDS011;23843;51.320;12.340;2022-10-31T17:07:05;13.60;;;10.23;;
38037;SDS011;23843;51.320;12.340;2022-10-31T17:09:33;11.90;;;8.57;;
38037;SDS011;23843;51.320;12.340;2022-10-31T17:11:58;11.57;;;7.93;;
38037;SDS011;23843;51.320;12.340;2022-10-31T17:14:24;12.40;;;8.70;;
38037;SDS011;23843;51.320;12.340;2022-10-31T17:16:49;12.87;;;8.20;;
38037;SDS011;23843;51.320;12.340;2022-10-31T17:19:15;18.70;;;13.17;;
38037;SDS011;23843;51.320;12.340;2022-10-31T17:21:40;12.37;;;8.40;;
38037;SDS011;23843;51.320;12.340;2022-10-31T17:24:08;24.20;;;15.97;;
38037;SDS011;23843;51.320;12.340;2022-10-31T17:26:36;19.60;;;13.33;;
38037;SDS011;23843;51.320;12.340;2022-10-31T17:29:02;15.93;;;11.87;;
38037;SDS011;23843;51.320;12.340;2022-10-31T17:31:28;12.13;;;8.93;;
38037;SDS011;23843;51.320;12.340;2022-10-31T17:33:55;8.00;;;5.90;;
38037;SDS011;23843;51.320;12.340;2022-10-31T17:36:20;5.47;;;4.20;;
38037;SDS011;23843;51.320;12.340;2022-10-31T17:38:46;5.37;;;4.20;;
38037;SDS011;23843;51.320;12.340;2022-10-31T17:41:13;5.10;;;3.87;;
38037;SDS011;23843;51.320;12.340;2022-10-31T17:43:38;4.20;;;3.77;;
38037;SDS011;23843;51.320;12.340;2022-10-31T17:46:03;7.27;;;4.60;;
38037;SDS011;23843;51.320;12.340;2022-10-31T17:48:29;8.20;;;5.67;;
38037;SDS011;23843;51.320;12.340;2022-10-31T17:50:58;6.80;;;4.80;;
38037;SDS011;23843;51.320;12.340;2022-10-31T17:53:24;10.30;;;7.10;;
38037;SDS011;23843;51.320;12.340;2022-10-31T17:55:49;21.63;;;13.63;;
38037;SDS011;23843;51.320;12.340;2022-10-31T17:58:16;14.33;;;10.13;;
38037;SDS011;23843;51.320;12.340;2022-10-31T18:00:41;11.47;;;8.43;;
38037;SDS011;23843;51.320;12.340;2022-10-31T18:03:06;12.70;;;9.53;;
38037;SDS011;23843;51.320;12.340;2022-10-31T18:05:32;23.23;;;13.73;;
38037;SDS011;23843;51.320;12.340;2022-10-31T18:07:58;13.30;;;9.90;;
38037;SDS011;23843;51.320;12.340;2022-10-31T18:10:23;18.43;;;13.47;;
38037;SDS011;23843;51.320;12.340;2022-10-31T18:12:49;14.03;;;10.50;;
38037;SDS011;23843;51.320;12.340;2022-10-31T18:15:16;22.83;;;15.77;;
38037;SDS011;23843;51.320;12.340;2022-10-31T18:17:42;17.87;;;12.83;;
38037;SDS011;23843;51.320;12.340;2022-10-31T18:20:08;16.57;;;12.33;;
38037;SDS011;23843;51.320;12.340;2022-10-31T18:22:34;11.37;;;8.70;;
38037;SDS011;23843;51.320;12.340;2022-10-31T18:25:00;20.93;;;14.23;;
38037;SDS011;23843;51.320;12.340;2022-10-31T18:27:26;10.07;;;7.90;;
38037;SDS011;23843;51.320;12.340;2022-10-31T18:29:51;9.50;;;7.47;;
38037;SDS011;23843;51.320;12.340;2022-10-31T18:32:18;8.37;;;6.60;;
38037;SDS011;23843;51.320;12.340;2022-10-31T18:34:43;10.57;;;8.13;;
38037;SDS011;23843;51.320;12.340;2022-10-31T18:37:09;15.87;;;11.90;;
38037;SDS011;23843;51.320;12.340;2022-10-31T18:39:34;20.37;;;14.17;;
38037;SDS011;23843;51.320;12.340;2022-10-31T18:42:00;18.03;;;12.03;;
38037;SDS011;23843;51.320;12.340;2022-10-31T18:44:25;14.70;;;10.17;;
38037;SDS011;23843;51.320;12.340;2022-10-31T18:46:50;13.43;;;9.63;;
38037;SDS011;23843;51.320;12.340;2022-10-31T18:49:17;14.20;;;10.83;;
38037;SDS011;23843;51.320;12.340;2022-10-31T18:51:43;10.37;;;7.33;;
38037;SDS011;23843;51.320;12.340;2022-10-31T18:54:08;10.27;;;7.40;;
38037;SDS011;23843;51.320;12.340;2022-10-31T18:56:33;9.07;;;7.27;;
38037;SDS011;23843;51.320;12.340;2022-10-31T18:58:59;8.37;;;6.73;;
38037;SDS011;23843;51.320;12.340;2022-10-31T19:01:24;7.90;;;6.17;;
38037;SDS011;23843;51.320;12.340;2022-10-31T19:03:53;14.60;;;9.57;;
38037;SDS011;23843;51.320;12.340;2022-10-31T19:06:22;11.60;;;8.93;;
38037;SDS011;23843;51.320;12.340;2022-10-31T19:08:55;15.93;;;10.77;;
38037;SDS011;23843;51.320;12.340;2022-10-31T19:11:22;17.47;;;11.20;;
38037;SDS011;23843;51.320;12.340;2022-10-31T19:13:47;17.17;;;12.83;;
38037;SDS011;23843;51.320;12.340;2022-10-31T19:16:13;16.23;;;12.23;;
38037;SDS011;23843;51.320;12.340;2022-10-31T19:18:40;21.40;;;14.73;;
38037;SDS011;23843;51.320;12.340;2022-10-31T19:21:07;21.03;;;14.53;;
38037;SDS011;23843;51.320;12.340;2022-10-31T19:23:35;16.93;;;11.43;;
38037;SDS011;23843;51.320;12.340;2022-10-31T19:26:01;18.10;;;12.53;;
38037;SDS011;23843;51.320;12.340;2022-10-31T19:28:27;21.83;;;14.50;;
38037;SDS011;23843;51.320;12.340;2022-10-31T19:30:53;24.80;;;15.73;;
38037;SDS011;23843;51.320;12.340;2022-10-31T19:33:19;15.77;;;11.07;;
38037;SDS011;23843;51.320;12.340;2022-10-31T19:35:44;18.87;;;12.20;;
38037;SDS011;23843;51.320;12.340;2022-10-31T19:38:09;16.13;;;12.80;;
38037;SDS011;23843;51.320;12.340;2022-10-31T19:40:36;15.47;;;11.03;;
38037;SDS011;23843;51.320;12.340;2022-10-31T19:43:02;12.17;;;9.00;;
38037;SDS011;23843;51.320;12.340;2022-10-31T19:45:27;15.03;;;10.53;;
38037;SDS011;23843;51.320;12.340;2022-10-31T19:47:53;14.03;;;10.43;;
38037;SDS011;23843;51.320;12.340;2022-10-31T19:50:18;13.40;;;9.60;;
38037;SDS011;23843;51.320;12.340;2022-10-31T19:52:43;13.13;;;9.50;;
38037;SDS011;23843;51.320;12.340;2022-10-31T19:55:09;14.37;;;9.97;;
38037;SDS011;23843;51.320;12.340;2022-10-31T19:57:36;16.03;;;11.40;;
38037;SDS011;23843;51.320;12.340;2022-10-31T20:00:01;14.47;;;10.60;;
38037;SDS011;23843;51.320;12.340;2022-10-31T20:02:27;14.73;;;9.97;;
38037;SDS011;23843;51.320;12.340;2022-10-31T20:04:53;10.70;;;7.77;;
38037;SDS011;23843;51.320;12.340;2022-10-31T20:07:18;9.23;;;7.57;;
38037;SDS011;23843;51.320;12.340;2022-10-31T20:09:49;8.03;;;5.47;;
38037;SDS011;23843;51.320;12.340;2022-10-31T20:12:16;4.40;;;3.40;;
38037;SDS011;23843;51.320;12.340;2022-10-31T20:14:43;7.90;;;5.90;;
38037;SDS011;23843;51.320;12.340;2022-10-31T20:17:08;6.23;;;5.03;;
38037;SDS011;23843;51.320;12.340;2022-10-31T20:19:34;5.73;;;4.50;;
38037;SDS011;23843;51.320;12.340;2022-10-31T20:21:59;10.10;;;6.10;;
38037;SDS011;23843;51.320;12.340;2022-10-31T20:24:29;9.47;;;6.37;;
38037;SDS011;23843;51.320;12.340;2022-10-31T20:26:58;12.20;;;7.20;;
38037;SDS011;23843;51.320;12.340;2022-10-31T20:29:24;12.07;;;8.73;;
38037;SDS011;23843;51.320;12.340;2022-10-31T20:31:50;7.57;;;6.37;;
38037;SDS011;23843;51.320;12.340;2022-10-31T20:34:16;5.23;;;4.33;;
38037;SDS011;23843;51.320;12.340;2022-10-31T20:36:41;4.10;;;3.40;;
38037;SDS011;23843;51.320;12.340;2022-10-31T20:39:07;6.57;;;5.40;;
38037;SDS011;23843;51.320;12.340;2022-10-31T20:41:34;6.80;;;5.20;;
38037;SDS011;23843;51.320;12.340;2022-10-31T20:44:01;3.93;;;3.03;;